createdAt,value
2018-10-19T00:00:04.126Z,100025.51
2018-10-19T00:02:33.676Z,100026.31
2018-10-19T00:05:03.275Z,100023.31
2018-10-19T00:07:32.771Z,100026.05
2018-10-19T00:10:02.285Z,100023.56
2018-10-19T00:12:31.942Z,100028.48
2018-10-19T00:15:01.569Z,100017.80
2018-10-19T00:17:31.104Z,100022.75
2018-10-19T00:20:00.646Z,100018.66
2018-10-19T00:22:30.159Z,100021.09
2018-10-19T00:24:59.695Z,100024.36
2018-10-19T00:27:29.199Z,100019.16
2018-10-19T00:29:58.742Z,100018.33
2018-10-19T00:32:28.275Z,100017.21
2018-10-19T00:34:57.860Z,100016.86
2018-10-19T00:37:27.361Z,100020.11
2018-10-19T00:39:56.888Z,100025.80
2018-10-19T00:42:26.418Z,100029.58
2018-10-19T00:44:55.996Z,100024.09
2018-10-19T00:47:25.515Z,100021.86
2018-10-19T00:49:55.039Z,100019.09
2018-10-19T00:52:24.785Z,100021.50
2018-10-19T00:54:54.418Z,100014.36
2018-10-19T00:57:23.998Z,100008.86
2018-10-19T00:59:53.577Z,100009.09
2018-10-19T01:02:23.306Z,100019.13
2018-10-19T01:04:52.912Z,100013.91
2018-10-19T01:07:22.443Z,100007.84
2018-10-19T01:09:51.934Z,100009.43
2018-10-19T01:12:21.494Z,100002.56
2018-10-19T01:14:51.015Z,100001.95
2018-10-19T01:17:20.574Z,99998.35
2018-10-19T01:19:50.061Z,100005.09
2018-10-19T01:22:19.685Z,100004.47
2018-10-19T01:24:49.290Z,99996.21
2018-10-19T01:27:18.878Z,100001.31
2018-10-19T01:29:48.390Z,100003.44
2018-10-19T01:32:17.919Z,100004.45
2018-10-19T01:34:47.475Z,99999.45
2018-10-19T01:37:16.979Z,99998.00
2018-10-19T01:39:46.529Z,99989.78
2018-10-19T01:42:16.065Z,99991.92
2018-10-19T01:44:45.604Z,99992.69
2018-10-19T01:47:15.186Z,99991.56
2018-10-19T01:49:44.655Z,99990.75
2018-10-19T01:52:14.232Z,99989.33
2018-10-19T01:54:43.770Z,99987.13
2018-10-19T01:57:13.500Z,99986.82
2018-10-19T01:59:42.915Z,99985.42
2018-10-19T02:02:12.450Z,99985.39
2018-10-19T02:04:41.966Z,99985.37
2018-10-19T02:07:11.580Z,99988.88
2018-10-19T02:09:41.088Z,99986.39
2018-10-19T02:12:10.697Z,99991.56
2018-10-19T02:14:40.367Z,99992.08
2018-10-19T02:17:09.967Z,99990.69
2018-10-19T02:19:39.474Z,99987.69
2018-10-19T02:22:09.227Z,99987.94
2018-10-19T02:24:38.804Z,99982.45
2018-10-19T02:27:08.795Z,99979.16
2018-10-19T02:29:38.382Z,99985.12
2018-10-19T02:32:07.990Z,99991.89
2018-10-19T02:34:37.697Z,99986.41
2018-10-19T02:37:07.726Z,99986.08
2018-10-19T02:39:37.270Z,99983.63
2018-10-19T02:42:06.867Z,99986.28
2018-10-19T02:44:36.362Z,99995.54
2018-10-19T02:47:06.349Z,99990.57
2018-10-19T02:49:35.859Z,99996.29
2018-10-19T02:52:05.774Z,99993.77
2018-10-19T02:54:35.294Z,99997.82
2018-10-19T02:57:04.871Z,100000.23
2018-10-19T02:59:34.387Z,100004.56
2018-10-19T03:02:03.898Z,100004.05
2018-10-19T03:04:33.475Z,99999.69
2018-10-19T03:07:03.027Z,99993.43
2018-10-19T03:09:32.615Z,100008.12
2018-10-19T03:12:02.118Z,100002.38
2018-10-19T03:14:31.654Z,100001.25
2018-10-19T03:17:01.217Z,99998.27
2018-10-19T03:19:30.719Z,99996.59
2018-10-19T03:22:00.250Z,99994.95
2018-10-19T03:24:29.839Z,100000.41
2018-10-19T03:26:59.411Z,99993.84
2018-10-19T03:29:28.903Z,99988.39
2018-10-19T03:31:58.440Z,99984.86
2018-10-19T03:34:27.959Z,99989.48
2018-10-19T03:36:57.516Z,99985.67
2018-10-19T03:39:27.089Z,99982.38
2018-10-19T03:41:56.587Z,99981.31
2018-10-19T03:44:26.139Z,99985.91
2018-10-19T03:46:55.691Z,99986.18
2018-10-19T03:49:25.242Z,99977.44
2018-10-19T03:51:54.756Z,99985.60
2018-10-19T03:54:24.279Z,99982.58
2018-10-19T03:56:53.804Z,99985.30
2018-10-19T03:59:23.355Z,99982.30
2018-10-19T04:01:52.848Z,99991.05
2018-10-19T04:04:22.380Z,99995.13
2018-10-19T04:06:51.883Z,100000.27
2018-10-19T04:09:21.420Z,100000.84
2018-10-19T04:11:50.945Z,99999.79
2018-10-19T04:14:20.484Z,99997.10
2018-10-19T04:16:50.023Z,99991.42
2018-10-19T04:19:19.510Z,99994.95
2018-10-19T04:21:49.191Z,99992.00
2018-10-19T04:24:18.708Z,99995.00
2018-10-19T04:26:48.289Z,99998.60
2018-10-19T04:29:17.857Z,99995.91
2018-10-19T04:31:47.338Z,99994.02
2018-10-19T04:34:16.886Z,99991.29
2018-10-19T04:36:46.458Z,99993.77
2018-10-19T04:39:16.051Z,100004.39
2018-10-19T04:41:46.289Z,100003.33
2018-10-19T04:44:15.715Z,100001.19
2018-10-19T04:46:45.767Z,100005.31
2018-10-19T04:49:15.314Z,100002.62
2018-10-19T04:51:44.880Z,100000.47
2018-10-19T04:54:14.379Z,100008.16
2018-10-19T04:56:43.934Z,100006.02
2018-10-19T04:59:13.537Z,100012.62
2018-10-19T05:01:43.274Z,100021.63
2018-10-19T05:04:12.847Z,100011.32
2018-10-19T05:06:42.565Z,100009.75
2018-10-19T05:09:13.001Z,99860.83
2018-10-19T05:11:42.624Z,100010.66
2018-10-19T05:14:12.202Z,99883.38
2018-10-19T05:16:41.772Z,100012.63
2018-10-19T05:19:11.279Z,100020.30
2018-10-19T05:21:41.040Z,100019.81
2018-10-19T05:24:10.539Z,100015.78
2018-10-19T05:26:40.099Z,100028.13
2018-10-19T05:29:09.722Z,100029.55
2018-10-19T05:31:39.270Z,100024.44
2018-10-19T05:34:08.812Z,100035.16
2018-10-19T05:36:38.436Z,100031.19
2018-10-19T05:39:09.159Z,100045.98
2018-10-19T05:41:38.753Z,100043.56
2018-10-19T05:44:08.391Z,100046.12
2018-10-19T05:46:37.944Z,99896.09
2018-10-19T05:49:07.497Z,100055.02
2018-10-19T05:51:37.053Z,100059.19
2018-10-19T05:54:06.755Z,100063.95
2018-10-19T05:56:36.324Z,100061.03
2018-10-19T05:59:06.064Z,99907.50
2018-10-19T06:01:35.570Z,100059.55
2018-10-19T06:04:05.442Z,100059.02
2018-10-19T06:06:34.991Z,100054.45
2018-10-19T06:09:05.685Z,100057.47
2018-10-19T06:11:35.223Z,100060.05
2018-10-19T06:14:04.846Z,100057.13
2018-10-19T06:16:34.335Z,100059.96
2018-10-19T06:19:03.895Z,100056.50
2018-10-19T06:21:33.533Z,100063.95
2018-10-19T06:24:03.133Z,100073.05
2018-10-19T06:26:32.663Z,100070.39
2018-10-19T06:29:02.254Z,100073.48
2018-10-19T06:31:31.835Z,100070.59
2018-10-19T06:34:01.431Z,100069.00
2018-10-19T06:36:30.974Z,100069.08
2018-10-19T06:39:00.770Z,100063.69
2018-10-19T06:41:30.319Z,99962.52
2018-10-19T06:43:59.893Z,100062.41
2018-10-19T06:46:29.489Z,100051.28
2018-10-19T06:48:59.103Z,100044.78
2018-10-19T06:51:28.567Z,100047.83
2018-10-19T06:53:58.107Z,100048.42
2018-10-19T06:56:27.850Z,100050.39
2018-10-19T06:58:57.552Z,100042.48
2018-10-19T07:01:27.070Z,100043.06
2018-10-19T07:03:56.644Z,99894.52
2018-10-19T07:06:26.171Z,100042.56
2018-10-19T07:08:55.751Z,100043.39
2018-10-19T07:11:25.254Z,100047.23
2018-10-19T07:13:54.888Z,100045.91
2018-10-19T07:16:24.487Z,100043.98
2018-10-19T07:18:54.048Z,100043.72
2018-10-19T07:21:23.582Z,100045.34
2018-10-19T07:23:53.363Z,100044.50
2018-10-19T07:26:23.164Z,100049.72
2018-10-19T07:28:52.754Z,100057.13
2018-10-19T07:31:22.359Z,100057.38
2018-10-19T07:33:52.505Z,100062.28
2018-10-19T07:36:22.086Z,100059.52
2018-10-19T07:38:51.746Z,100050.72
2018-10-19T07:41:21.439Z,100047.70
2018-10-19T07:43:50.967Z,100052.08
2018-10-19T07:46:20.599Z,100047.95
2018-10-19T07:48:50.307Z,100041.63
2018-10-19T07:51:19.845Z,100047.62
2018-10-19T07:53:49.383Z,100046.20
2018-10-19T07:56:18.911Z,100045.08
2018-10-19T07:58:48.444Z,100037.94
2018-10-19T08:01:18.044Z,100037.37
2018-10-19T08:03:47.638Z,99895.61
2018-10-19T08:06:17.175Z,100027.19
2018-10-19T08:08:46.733Z,100015.34
2018-10-19T08:11:16.436Z,100009.56
2018-10-19T08:13:45.940Z,100010.05
2018-10-19T08:16:16.419Z,100009.73
2018-10-19T08:18:45.999Z,100014.65
2018-10-19T08:21:15.610Z,100013.77
2018-10-19T08:23:45.456Z,100018.12
2018-10-19T08:26:15.090Z,100023.26
2018-10-19T08:28:44.644Z,100023.48
2018-10-19T08:31:14.200Z,100012.44
2018-10-19T08:33:43.739Z,100016.47
2018-10-19T08:36:13.299Z,100017.19
2018-10-19T08:38:43.059Z,100016.03
2018-10-19T08:41:12.840Z,100007.72
2018-10-19T08:43:42.298Z,100012.59
2018-10-19T08:46:16.870Z,100014.42
2018-10-19T08:48:46.416Z,100018.23
2018-10-19T08:51:16.015Z,99896.59
2018-10-19T08:53:45.674Z,99885.95
2018-10-19T08:56:15.270Z,100019.95
2018-10-19T08:58:44.770Z,100019.58
2018-10-19T09:01:14.344Z,100016.47
2018-10-19T09:03:43.886Z,100013.39
2018-10-19T09:06:13.545Z,100008.66
2018-10-19T09:08:42.999Z,100012.12
2018-10-19T09:11:12.751Z,100014.52
2018-10-19T09:13:42.311Z,100019.44
2018-10-19T09:16:13.049Z,100016.08
2018-10-19T09:18:42.738Z,100016.56
2018-10-19T09:21:18.684Z,100010.15
2018-10-19T09:23:48.315Z,100005.08
2018-10-19T09:26:17.871Z,100003.10
2018-10-19T09:28:47.411Z,99993.70
2018-10-19T09:31:17.070Z,99990.14
2018-10-19T09:33:46.588Z,99982.12
2018-10-19T09:36:16.527Z,99975.75
2018-10-19T09:38:45.883Z,99981.25
2018-10-19T09:41:15.530Z,99975.41
2018-10-19T09:43:45.079Z,99980.91
2018-10-19T09:46:14.670Z,99976.50
2018-10-19T09:48:44.223Z,99952.97
2018-10-19T09:51:14.156Z,99964.90
2018-10-19T09:53:43.629Z,99969.73
2018-10-19T09:56:13.207Z,99963.31
2018-10-19T09:58:42.695Z,99962.92
2018-10-19T10:01:17.450Z,99958.69
2018-10-19T10:03:47.006Z,99959.20
2018-10-19T10:06:16.534Z,99951.20
2018-10-19T10:08:46.099Z,99952.75
2018-10-19T10:11:15.607Z,99941.97
2018-10-19T10:13:45.140Z,99943.30
2018-10-19T10:16:14.702Z,99934.16
2018-10-19T10:18:44.255Z,99929.48
2018-10-19T10:21:13.759Z,99936.03
2018-10-19T10:23:43.714Z,99931.79
2018-10-19T10:26:13.832Z,99923.73
2018-10-19T10:28:43.553Z,99922.30
2018-10-19T10:31:13.258Z,99920.05
2018-10-19T10:33:42.655Z,99920.86
2018-10-19T10:36:12.212Z,99924.70
2018-10-19T10:38:41.771Z,99915.00
2018-10-19T10:41:11.391Z,99903.66
2018-10-19T10:43:41.041Z,99900.05
2018-10-19T10:46:10.742Z,99895.58
2018-10-19T10:48:40.280Z,99895.58
2018-10-19T10:51:09.886Z,99887.03
2018-10-19T10:53:39.487Z,99890.91
2018-10-19T10:56:09.024Z,99883.41
2018-10-19T10:58:38.611Z,99886.44
2018-10-19T11:01:08.148Z,99880.56
2018-10-19T11:03:37.736Z,99878.31
2018-10-19T11:06:07.363Z,99876.31
2018-10-19T11:08:36.889Z,99875.95
2018-10-19T11:11:10.013Z,99871.81
2018-10-19T11:13:40.545Z,99872.26
2018-10-19T11:16:11.152Z,99737.98
2018-10-19T11:18:40.935Z,99863.69
2018-10-19T11:21:10.647Z,99863.95
2018-10-19T11:23:40.195Z,99864.97
2018-10-19T11:26:09.723Z,99853.66
2018-10-19T11:28:39.251Z,99847.27
2018-10-19T11:31:08.794Z,99849.97
2018-10-19T11:33:38.373Z,99850.53
2018-10-19T11:36:07.998Z,99843.34
2018-10-19T11:38:37.523Z,99837.48
2018-10-19T11:41:07.129Z,99846.84
2018-10-19T11:43:36.690Z,99838.83
2018-10-19T11:46:06.716Z,99843.78
2018-10-19T11:48:36.252Z,99835.23
2018-10-19T11:51:05.915Z,99835.20
2018-10-19T11:53:35.410Z,99825.94
2018-10-19T11:56:05.308Z,99829.20
2018-10-19T11:58:34.945Z,99827.80
2018-10-19T12:01:04.582Z,99825.54
2018-10-19T12:03:34.221Z,99816.38
2018-10-19T12:06:03.736Z,99824.53
2018-10-19T12:08:33.277Z,99826.36
2018-10-19T12:11:02.795Z,99824.67
2018-10-19T12:13:32.423Z,99819.96
2018-10-19T12:16:02.044Z,99814.81
2018-10-19T12:18:31.558Z,99813.87
2018-10-19T12:21:01.198Z,99818.48
2018-10-19T12:23:30.663Z,99813.77
2018-10-19T12:26:00.272Z,99808.75
2018-10-19T12:28:29.754Z,99819.72
2018-10-19T12:30:59.420Z,99811.70
2018-10-19T12:33:28.917Z,99814.14
2018-10-19T12:35:58.563Z,99814.14
2018-10-19T12:38:28.085Z,99808.07
2018-10-19T12:40:57.732Z,99814.70
2018-10-19T12:43:27.273Z,99808.58
2018-10-19T12:46:48.804Z,99806.05
2018-10-19T12:49:20.541Z,99804.09
2018-10-19T12:51:50.172Z,99801.60
2018-10-19T12:54:19.753Z,99805.17
2018-10-19T12:56:49.321Z,99804.94
2018-10-19T12:59:18.907Z,99806.05
2018-10-19T13:01:48.499Z,99812.08
2018-10-19T13:04:18.047Z,99811.44
2018-10-19T13:06:47.635Z,99813.59
2018-10-19T13:09:17.213Z,99817.80
2018-10-19T13:11:46.762Z,99822.14
2018-10-19T13:14:16.378Z,99816.88
2018-10-19T13:16:45.932Z,99815.54
2018-10-19T13:19:15.526Z,99677.25
2018-10-19T13:21:45.163Z,99811.22
2018-10-19T13:24:14.850Z,99810.11
2018-10-19T13:26:44.283Z,99815.33
2018-10-19T13:29:13.846Z,99813.37
2018-10-19T13:31:43.369Z,99809.16
2018-10-19T13:34:13.011Z,99808.34
2018-10-19T13:36:42.600Z,99814.45
2018-10-19T13:39:13.449Z,99809.08
2018-10-19T13:41:43.254Z,99810.97
2018-10-19T13:44:13.164Z,99814.23
2018-10-19T13:46:42.724Z,99809.52
2018-10-19T13:49:12.277Z,99809.20
2018-10-19T13:51:41.834Z,99803.99
2018-10-19T13:54:11.354Z,99808.13
2018-10-19T13:56:40.953Z,99801.88
2018-10-19T13:59:10.541Z,99664.19
2018-10-19T14:01:40.094Z,99792.52
2018-10-19T14:04:09.602Z,99795.84
2018-10-19T14:06:39.225Z,99793.39
2018-10-19T14:09:10.213Z,99789.63
2018-10-19T14:11:40.319Z,99796.03
2018-10-19T14:14:09.938Z,99801.13
2018-10-19T14:16:39.496Z,99798.66
2018-10-19T14:19:09.092Z,99798.70
2018-10-19T14:21:38.596Z,99798.77
2018-10-19T14:24:08.139Z,99792.52
2018-10-19T14:26:37.700Z,99795.65
2018-10-19T14:29:07.351Z,99788.55
2018-10-19T14:31:36.923Z,99787.54
2018-10-19T14:34:06.491Z,99664.25
2018-10-19T14:36:36.028Z,99794.87
2018-10-19T14:39:06.459Z,99796.87
2018-10-19T14:41:35.970Z,99795.62
2018-10-19T14:44:05.600Z,99789.16
2018-10-19T14:46:35.218Z,99786.56
2018-10-19T14:49:04.844Z,99788.88
2018-10-19T14:51:34.409Z,99793.11
2018-10-19T14:54:03.987Z,99790.48
2018-10-19T14:56:33.559Z,99792.80
2018-10-19T14:59:03.126Z,99797.30
2018-10-19T15:01:32.675Z,99799.34
2018-10-19T15:04:02.188Z,99801.11
2018-10-19T15:06:31.730Z,99800.97
2018-10-19T15:09:01.485Z,99808.84
2018-10-19T15:11:31.191Z,99808.18
2018-10-19T15:14:00.603Z,99815.16
2018-10-19T15:16:30.199Z,99814.19
2018-10-19T15:19:00.158Z,99812.95
2018-10-19T15:21:29.838Z,99818.87
2018-10-19T15:23:59.590Z,99825.30
2018-10-19T15:26:29.137Z,99833.97
2018-10-19T15:28:58.735Z,99834.05
2018-10-19T15:31:28.251Z,99835.53
2018-10-19T15:33:57.803Z,99837.52
2018-10-19T15:36:27.351Z,99845.88
2018-10-19T15:38:56.909Z,99838.82
2018-10-19T15:41:26.445Z,99848.53
2018-10-19T15:43:55.974Z,99842.83
2018-10-19T15:46:25.613Z,99852.23
2018-10-19T15:48:55.101Z,99853.39
2018-10-19T15:51:24.639Z,99856.19
2018-10-19T15:53:54.232Z,99856.53
2018-10-19T15:56:23.730Z,99855.77
2018-10-19T15:58:53.300Z,99856.15
2018-10-19T16:01:22.796Z,99859.25
2018-10-19T16:03:52.519Z,99861.00
2018-10-19T16:06:22.054Z,99856.73
2018-10-19T16:08:51.588Z,99858.20
2018-10-19T16:11:21.201Z,99861.89
2018-10-19T16:13:50.690Z,99863.05
2018-10-19T16:16:20.218Z,99871.38
2018-10-19T16:18:49.718Z,99876.64
2018-10-19T16:21:19.299Z,99878.34
2018-10-19T16:23:48.842Z,99886.39
2018-10-19T16:26:18.384Z,99879.59
2018-10-19T16:28:47.887Z,99883.52
2018-10-19T16:31:17.486Z,99886.31
2018-10-19T16:33:47.135Z,99889.13
2018-10-19T16:36:16.691Z,99888.64
2018-10-19T16:38:46.167Z,99885.16
2018-10-19T16:41:15.799Z,99888.01
2018-10-19T16:43:45.323Z,99892.20
2018-10-19T16:46:14.899Z,99891.73
2018-10-19T16:48:44.655Z,99892.33
2018-10-19T16:51:14.206Z,99892.39
2018-10-19T16:53:43.786Z,99895.75
2018-10-19T16:56:13.254Z,99900.20
2018-10-19T16:58:42.785Z,99908.50
2018-10-19T17:01:12.307Z,99898.66
2018-10-19T17:03:41.838Z,99909.11
2018-10-19T17:06:11.381Z,99907.51
2018-10-19T17:08:40.952Z,99913.55
2018-10-19T17:11:10.502Z,99908.11
2018-10-19T17:13:40.089Z,99909.23
2018-10-19T17:16:09.591Z,99912.00
2018-10-19T17:18:39.123Z,99910.36
2018-10-19T17:21:08.680Z,99912.32
2018-10-19T17:23:38.193Z,99913.99
2018-10-19T17:26:08.149Z,99915.39
2018-10-19T17:28:37.718Z,99921.42
2018-10-19T17:31:07.320Z,99923.09
2018-10-19T17:33:36.873Z,99925.02
2018-10-19T17:36:06.441Z,99929.16
2018-10-19T17:38:35.934Z,99929.69
2018-10-19T17:41:05.933Z,99930.00
2018-10-19T17:43:35.462Z,99926.97
2018-10-19T17:46:04.999Z,99929.17
2018-10-19T17:48:34.574Z,99927.27
2018-10-19T17:51:04.250Z,99929.75
2018-10-19T17:53:33.754Z,99933.58
2018-10-19T17:56:03.279Z,99934.94
2018-10-19T17:58:32.811Z,99925.09
2018-10-19T18:01:02.402Z,99936.89
2018-10-19T18:03:32.059Z,99944.02
2018-10-19T18:06:01.630Z,99940.47
2018-10-19T18:08:31.247Z,99935.80
2018-10-19T18:11:00.779Z,99938.25
2018-10-19T18:13:30.310Z,99942.36
2018-10-19T18:15:59.811Z,99945.11
2018-10-19T18:18:29.375Z,99943.48
2018-10-19T18:20:58.952Z,99943.20
2018-10-19T18:23:28.506Z,99945.41
2018-10-19T18:25:58.015Z,99942.94
2018-10-19T18:28:27.538Z,99947.89
2018-10-19T18:30:57.071Z,99950.89
2018-10-19T18:33:26.547Z,99954.45
2018-10-19T18:35:56.063Z,99958.88
2018-10-19T18:38:25.535Z,99957.78
2018-10-19T18:40:55.108Z,99962.47
2018-10-19T18:43:24.618Z,99969.32
2018-10-19T18:45:54.166Z,99970.42
2018-10-19T18:48:23.687Z,99970.98
2018-10-19T18:50:53.298Z,99975.38
2018-10-19T18:53:22.791Z,99975.12
2018-10-19T18:55:52.501Z,99984.18
2018-10-19T18:58:21.931Z,99986.08
2018-10-19T19:00:51.499Z,99984.72
2018-10-19T19:03:21.029Z,99985.83
2018-10-19T19:05:50.607Z,99984.73
2018-10-19T19:08:20.099Z,99992.14
2018-10-19T19:10:49.674Z,99989.11
2018-10-19T19:13:24.384Z,99988.86
2018-10-19T19:15:53.914Z,99996.52
2018-10-19T19:18:23.458Z,99992.16
2018-10-19T19:20:52.983Z,99992.16
2018-10-19T19:23:22.531Z,99995.16
2018-10-19T19:25:57.183Z,100000.64
2018-10-19T19:28:26.690Z,100000.64
2018-10-19T19:30:56.271Z,99996.52
2018-10-19T19:33:30.777Z,99998.18
2018-10-19T19:36:00.319Z,100002.27
2018-10-19T19:38:29.842Z,100003.94
2018-10-19T19:43:10.254Z,99998.72
2018-10-19T19:45:39.819Z,100002.83
2018-10-19T19:48:14.339Z,100002.58
2018-10-19T19:50:43.888Z,100005.84
2018-10-19T19:53:13.558Z,100007.78
2018-10-19T19:55:42.986Z,100011.06
2018-10-19T19:58:12.570Z,100011.06
2018-10-19T20:00:42.099Z,100015.47
2018-10-19T20:03:11.638Z,100017.94
2018-10-19T20:05:41.122Z,100017.39
2018-10-19T20:08:10.710Z,100023.16
2018-10-19T20:10:40.178Z,100024.24
2018-10-19T20:13:09.738Z,100014.11
2018-10-19T20:15:39.238Z,100017.95
2018-10-19T20:18:08.856Z,100014.66
2018-10-19T20:20:38.389Z,100010.00
2018-10-19T20:23:08.007Z,100013.84
2018-10-19T20:25:37.503Z,100016.03
2018-10-19T20:28:07.010Z,100014.93
2018-10-19T20:30:36.570Z,100010.27
2018-10-19T20:33:06.154Z,100011.09
2018-10-19T20:35:35.714Z,100016.31
2018-10-19T20:38:05.299Z,100014.95
2018-10-19T20:40:34.839Z,100011.66
2018-10-19T20:43:04.344Z,100010.01
2018-10-19T20:45:33.960Z,100018.48
2018-10-19T20:48:03.503Z,100023.16
2018-10-19T20:50:33.054Z,100025.35
2018-10-19T20:53:02.600Z,100036.00
2018-10-19T20:55:32.162Z,100031.05
2018-10-19T20:58:01.678Z,100030.51
2018-10-19T21:00:31.211Z,100032.99
2018-10-19T21:03:00.738Z,100027.78
2018-10-19T21:05:30.344Z,100025.86
2018-10-19T21:08:00.012Z,100028.86
2018-10-19T21:10:29.543Z,100029.94
2018-10-19T21:12:59.043Z,100033.77
2018-10-19T21:15:28.735Z,100029.95
2018-10-19T21:17:58.229Z,100032.11
2018-10-19T21:20:27.827Z,100032.11
2018-10-19T21:22:57.346Z,100035.95
2018-10-19T21:25:26.902Z,100034.55
2018-10-19T21:27:56.439Z,100034.84
2018-10-19T21:30:25.992Z,100039.77
2018-10-19T21:32:55.547Z,100038.69
2018-10-19T21:35:25.071Z,100042.80
2018-10-19T21:37:54.631Z,100042.53
2018-10-19T21:40:24.241Z,100039.53
2018-10-19T21:42:53.779Z,100037.34
2018-10-19T21:45:23.293Z,100030.77
2018-10-19T21:47:52.812Z,100036.80
2018-10-19T21:50:23.036Z,100037.61
2018-10-19T21:52:53.373Z,100048.01
2018-10-19T21:55:22.880Z,100043.34
2018-10-19T21:57:52.414Z,100048.01
2018-10-19T22:00:21.972Z,100043.90
2018-10-19T22:02:51.503Z,100042.53
2018-10-19T22:05:21.206Z,100038.69
2018-10-19T22:07:50.744Z,100044.16
2018-10-19T22:10:20.256Z,100038.69
2018-10-19T22:12:49.790Z,100050.19
2018-10-19T22:15:19.313Z,100051.02
2018-10-19T22:17:48.866Z,100057.02
2018-10-19T22:20:18.412Z,100052.64
2018-10-19T22:22:47.968Z,100057.56
2018-10-19T22:25:17.561Z,100058.09
2018-10-19T22:27:47.173Z,100059.45
2018-10-19T22:30:16.724Z,100059.19
2018-10-19T22:32:46.250Z,100061.93
2018-10-19T22:35:15.862Z,100060.56
2018-10-19T22:37:45.368Z,100063.85
2018-10-19T22:40:14.903Z,100061.64
2018-10-19T22:42:44.439Z,100054.24
2018-10-19T22:45:14.007Z,100054.80
2018-10-19T22:47:43.543Z,100046.03
2018-10-19T22:50:13.066Z,100044.95
2018-10-19T22:52:42.631Z,100052.05
2018-10-19T22:55:12.208Z,100047.13
2018-10-19T22:57:41.713Z,100051.50
2018-10-19T23:00:11.232Z,100053.42
2018-10-19T23:02:40.778Z,100054.76
2018-10-19T23:05:10.343Z,100058.30
2018-10-19T23:07:39.866Z,100059.92
2018-10-19T23:10:09.599Z,100058.25
2018-10-19T23:12:39.126Z,100060.39
2018-10-19T23:15:08.736Z,100059.02
2018-10-19T23:17:38.448Z,100063.11
2018-10-19T23:20:08.654Z,100065.20
2018-10-19T23:22:38.210Z,100063.27
2018-10-19T23:25:08.321Z,100067.62
2018-10-19T23:27:37.847Z,100068.94
2018-10-19T23:30:07.752Z,100056.06
2018-10-19T23:32:37.283Z,100062.33
2018-10-19T23:35:08.023Z,100061.20
2018-10-19T23:37:37.591Z,100057.61
2018-10-19T23:40:07.695Z,100055.92
2018-10-19T23:42:37.228Z,100053.98
2018-10-19T23:45:07.732Z,100052.86
2018-10-19T23:47:37.235Z,99920.55
2018-10-19T23:50:07.510Z,100043.22
2018-10-19T23:52:37.068Z,100043.20
2018-10-19T23:55:07.100Z,100040.70
2018-10-19T23:57:36.630Z,100042.86
